Time,TemperatureF,DewpointF,PressureIn,WindDirection,WindDirectionDegrees,WindSpeedMPH,WindSpeedGustMPH,Humidity,HourlyPrecipIn,Conditions,Clouds,dailyrainin,SoftwareType,DateUTC
2013-01-15 00:14:00,73.3,68.0,30.12,SE,136,0.0,-999.0,82,-99.99,,,0.00,weatherlink.com 1.10,2013-01-15 05:14:00,
2013-01-15 00:29:00,73.5,68.0,30.11,SE,133,0.0,-999.0,82,-99.99,,,0.00,weatherlink.com 1.10,2013-01-15 05:29:00,
2013-01-15 00:44:00,73.2,67.0,30.11,ESE,117,0.0,-999.0,82,-99.99,,,0.00,weatherlink.com 1.10,2013-01-15 05:44:00,
2013-01-15 00:59:00,73.2,68.0,30.11,ESE,117,0.0,-999.0,83,-99.99,,,0.00,weatherlink.com 1.10,2013-01-15 05:59:00,
2013-01-15 01:14:00,73.3,68.0,30.11,SE,145,0.0,-999.0,83,-99.99,,,0.00,weatherlink.com 1.10,2013-01-15 06:14:00,
2013-01-15 01:29:00,73.0,68.0,30.11,SE,141,0.0,-999.0,84,-99.99,,,0.00,weatherlink.com 1.10,2013-01-15 06:29:00,
2013-01-15 01:44:00,72.9,68.0,30.11,ESE,102,0.0,-999.0,85,-99.99,,,0.00,weatherlink.com 1.10,2013-01-15 06:44:00,
2013-01-15 01:59:00,73.2,68.0,30.11,SE,144,0.0,-999.0,83,-99.99,,,0.00,weatherlink.com 1.10,2013-01-15 06:59:00,
2013-01-15 02:14:00,73.1,68.0,30.10,ESE,119,0.0,-999.0,83,-99.99,,,0.00,weatherlink.com 1.10,2013-01-15 07:14:00,
2013-01-15 02:29:00,72.6,68.0,30.09,East,93,0.0,-999.0,84,-99.99,,,0.00,weatherlink.com 1.10,2013-01-15 07:29:00,
2013-01-15 02:44:00,72.2,68.0,30.09,SE,124,0.0,-999.0,85,-99.99,,,0.00,weatherlink.com 1.10,2013-01-15 07:44:00,
2013-01-15 02:59:00,72.2,68.0,30.09,ENE,71,0.0,-999.0,85,-99.99,,,0.00,weatherlink.com 1.10,2013-01-15 07:59:00,
2013-01-15 03:14:00,72.1,67.0,30.09,ESE,115,0.0,-999.0,85,-99.99,,,0.00,weatherlink.com 1.10,2013-01-15 08:14:00,
2013-01-15 03:29:00,72.4,68.0,30.09,East,84,0.0,-999.0,85,-99.99,,,0.00,weatherlink.com 1.10,2013-01-15 08:29:00,
2013-01-15 03:44:00,72.9,68.0,30.08,East,98,0.0,-999.0,84,-99.99,,,0.00,weatherlink.com 1.10,2013-01-15 08:44:00,
2013-01-15 03:59:00,73.0,68.0,30.08,ENE,63,0.0,-999.0,84,-99.99,,,0.00,weatherlink.com 1.10,2013-01-15 08:59:00,
2013-01-15 04:14:00,72.9,68.0,30.07,East,94,0.0,-999.0,84,-99.99,,,0.00,weatherlink.com 1.10,2013-01-15 09:14:00,
2013-01-15 04:29:00,72.9,68.0,30.08,ENE,69,0.0,-999.0,84,-99.99,,,0.00,weatherlink.com 1.10,2013-01-15 09:29:00,
2013-01-15 04:45:00,72.6,68.0,30.08,East,101,0.0,-999.0,85,-99.99,,,0.00,weatherlink.com 1.10,2013-01-15 09:45:00,
2013-01-15 05:00:00,72.2,68.0,30.08,ESE,115,0.0,-999.0,86,-99.99,,,0.00,weatherlink.com 1.10,2013-01-15 10:00:00,
2013-01-15 05:15:00,71.7,67.0,30.08,ESE,114,0.0,-999.0,86,-99.99,,,0.00,weatherlink.com 1.10,2013-01-15 10:15:00,
2013-01-15 05:30:00,71.1,67.0,30.08,ESE,114,0.0,-999.0,88,-99.99,,,0.00,weatherlink.com 1.10,2013-01-15 10:30:00,
2013-01-15 05:45:00,70.6,67.0,30.08,ESE,114,0.0,-999.0,89,-99.99,,,0.00,weatherlink.com 1.10,2013-01-15 10:45:00,
2013-01-15 06:00:00,70.2,67.0,30.08,ESE,115,0.0,-999.0,89,-99.99,,,0.00,weatherlink.com 1.10,2013-01-15 11:00:00,
2013-01-15 06:15:00,70.0,67.0,30.09,ESE,115,0.0,-999.0,91,-99.99,,,0.00,weatherlink.com 1.10,2013-01-15 11:15:00,
2013-01-15 06:30:00,70.5,68.0,30.09,ESE,115,0.0,-999.0,92,-99.99,,,0.00,weatherlink.com 1.10,2013-01-15 11:30:00,
2013-01-15 06:45:00,70.5,68.0,30.09,ESE,115,0.0,-999.0,92,-99.99,,,0.00,weatherlink.com 1.10,2013-01-15 11:45:00,
2013-01-15 07:00:00,70.6,69.0,30.09,ESE,114,0.0,-999.0,93,-99.99,,,0.01,weatherlink.com 1.10,2013-01-15 12:00:00,
2013-01-15 07:15:00,70.7,69.0,30.09,ESE,114,0.0,-999.0,93,-99.99,,,0.01,weatherlink.com 1.10,2013-01-15 12:15:00,
2013-01-15 07:30:00,70.7,69.0,30.10,ESE,115,0.0,-999.0,93,-99.99,,,0.01,weatherlink.com 1.10,2013-01-15 12:30:00,
2013-01-15 07:45:00,71.0,68.0,30.10,ESE,102,0.0,-999.0,91,-99.99,,,0.01,weatherlink.com 1.10,2013-01-15 12:45:00,
2013-01-15 08:00:00,72.2,68.0,30.11,SE,124,0.0,-999.0,87,-99.99,,,0.01,weatherlink.com 1.10,2013-01-15 13:00:00,
2013-01-15 08:15:00,73.1,69.0,30.11,ESE,115,0.0,-999.0,86,-99.99,,,0.01,weatherlink.com 1.10,2013-01-15 13:15:00,
2013-01-15 08:30:00,74.3,69.0,30.11,SE,146,0.0,-999.0,83,-99.99,,,0.01,weatherlink.com 1.10,2013-01-15 13:30:00,
2013-01-15 08:45:00,75.7,69.0,30.12,East,94,0.0,-999.0,80,-99.99,,,0.01,weatherlink.com 1.10,2013-01-15 13:45:00,
2013-01-15 09:00:00,77.2,69.0,30.12,ESE,110,0.0,-999.0,75,-99.99,,,0.01,weatherlink.com 1.10,2013-01-15 14:00:00,
2013-01-15 09:15:00,77.5,69.0,30.12,East,101,0.0,-999.0,74,-99.99,,,0.01,weatherlink.com 1.10,2013-01-15 14:15:00,
2013-01-15 09:30:00,77.3,68.0,30.12,SE,144,0.0,-999.0,73,-99.99,,,0.01,weatherlink.com 1.10,2013-01-15 14:30:00,
2013-01-15 09:45:00,76.5,68.0,30.12,SSE,155,0.0,-999.0,75,-99.99,,,0.01,weatherlink.com 1.10,2013-01-15 14:45:00,
2013-01-15 10:00:00,76.1,68.0,30.12,SSE,168,0.0,-999.0,76,-99.99,,,0.01,weatherlink.com 1.10,2013-01-15 15:00:00,
2013-01-15 10:15:00,78.1,69.0,30.12,ESE,123,0.0,-999.0,73,-99.99,,,0.01,weatherlink.com 1.10,2013-01-15 15:15:00,
2013-01-15 10:30:00,78.2,68.0,30.12,East,94,0.0,-999.0,70,-99.99,,,0.01,weatherlink.com 1.10,2013-01-15 15:30:00,
2013-01-15 10:45:00,77.3,68.0,30.11,SE,132,0.0,-999.0,72,-99.99,,,0.01,weatherlink.com 1.10,2013-01-15 15:45:00,
2013-01-15 11:00:00,77.2,67.0,30.10,ENE,62,0.0,-999.0,71,-99.99,,,0.01,weatherlink.com 1.10,2013-01-15 16:00:00,
2013-01-15 11:15:00,77.5,68.0,30.10,South,184,0.0,-999.0,72,-99.99,,,0.01,weatherlink.com 1.10,2013-01-15 16:15:00,
2013-01-15 11:30:00,77.8,68.0,30.09,South,170,0.0,-999.0,71,-99.99,,,0.01,weatherlink.com 1.10,2013-01-15 16:30:00,
2013-01-15 11:45:00,78.2,68.0,30.09,SE,135,0.0,-999.0,70,-99.99,,,0.01,weatherlink.com 1.10,2013-01-15 16:45:00,
2013-01-15 12:00:00,77.9,68.0,30.09,ESE,117,0.0,-999.0,72,-99.99,,,0.01,weatherlink.com 1.10,2013-01-15 17:00:00,
2013-01-15 12:15:00,77.4,68.0,30.08,SSE,161,0.0,-999.0,73,-99.99,,,0.01,weatherlink.com 1.10,2013-01-15 17:15:00,
2013-01-15 12:30:00,77.4,68.0,30.07,SE,128,0.0,-999.0,72,-99.99,,,0.01,weatherlink.com 1.10,2013-01-15 17:30:00,
2013-01-15 12:45:00,77.3,68.0,30.07,SSE,148,0.0,-999.0,73,-99.99,,,0.01,weatherlink.com 1.10,2013-01-15 17:45:00,
2013-01-15 13:00:00,77.0,68.0,30.07,East,83,0.0,-999.0,74,-99.99,,,0.01,weatherlink.com 1.10,2013-01-15 18:00:00,
2013-01-15 13:15:00,77.1,68.0,30.06,SE,146,0.0,-999.0,73,-99.99,,,0.01,weatherlink.com 1.10,2013-01-15 18:15:00,
2013-01-15 13:30:00,77.0,68.0,30.06,SSE,159,0.0,-999.0,73,-99.99,,,0.01,weatherlink.com 1.10,2013-01-15 18:30:00,
2013-01-15 13:45:00,76.9,68.0,30.06,West,275,0.0,-999.0,73,-99.99,,,0.01,weatherlink.com 1.10,2013-01-15 18:45:00,
2013-01-15 14:00:00,76.9,67.0,30.06,ESE,107,0.0,-999.0,72,-99.99,,,0.01,weatherlink.com 1.10,2013-01-15 19:00:00,
2013-01-15 14:15:00,77.6,68.0,30.06,SSW,199,0.0,-999.0,71,-99.99,,,0.01,weatherlink.com 1.10,2013-01-15 19:15:00,
2013-01-15 14:30:00,77.6,68.0,30.06,South,175,0.0,-999.0,72,-99.99,,,0.01,weatherlink.com 1.10,2013-01-15 19:30:00,
2013-01-15 14:45:00,77.7,68.0,30.05,SSW,202,0.0,-999.0,71,-99.99,,,0.01,weatherlink.com 1.10,2013-01-15 19:45:00,
2013-01-15 15:00:00,77.8,68.0,30.05,SSE,153,0.0,-999.0,71,-99.99,,,0.01,weatherlink.com 1.10,2013-01-15 20:00:00,
2013-01-15 15:15:00,78.2,68.0,30.05,ESE,108,0.0,-999.0,71,-99.99,,,0.01,weatherlink.com 1.10,2013-01-15 20:15:00,
2013-01-15 15:30:00,78.2,67.0,30.05,SE,126,0.0,-999.0,69,-99.99,,,0.01,weatherlink.com 1.10,2013-01-15 20:30:00,
2013-01-15 15:45:00,79.2,68.0,30.05,SSE,160,0.0,-999.0,69,-99.99,,,0.01,weatherlink.com 1.10,2013-01-15 20:45:00,
2013-01-15 16:00:00,79.0,68.0,30.06,ESE,111,0.0,-999.0,68,-99.99,,,0.01,weatherlink.com 1.10,2013-01-15 21:00:00,
2013-01-15 16:15:00,78.8,68.0,30.06,SSE,150,0.0,-999.0,69,-99.99,,,0.01,weatherlink.com 1.10,2013-01-15 21:15:00,
2013-01-15 16:30:00,78.1,68.0,30.07,East,100,0.0,-999.0,70,-99.99,,,0.01,weatherlink.com 1.10,2013-01-15 21:30:00,
2013-01-15 16:45:00,77.2,68.0,30.07,SW,232,0.0,-999.0,72,-99.99,,,0.01,weatherlink.com 1.10,2013-01-15 21:45:00,
2013-01-15 17:00:00,76.6,67.0,30.08,East,98,0.0,-999.0,73,-99.99,,,0.01,weatherlink.com 1.10,2013-01-15 22:00:00,
2013-01-15 17:15:00,76.1,67.0,30.08,South,173,0.0,-999.0,74,-99.99,,,0.01,weatherlink.com 1.10,2013-01-15 22:15:00,
2013-01-15 17:30:00,75.5,67.0,30.07,SSE,148,0.0,-999.0,75,-99.99,,,0.01,weatherlink.com 1.10,2013-01-15 22:30:00,
2013-01-15 17:45:00,75.0,67.0,30.08,ESE,121,0.0,-999.0,76,-99.99,,,0.01,weatherlink.com 1.10,2013-01-15 22:45:00,
2013-01-15 18:00:00,74.4,66.0,30.08,East,100,0.0,-999.0,76,-99.99,,,0.01,weatherlink.com 1.10,2013-01-15 23:00:00,
2013-01-15 18:15:00,73.9,66.0,30.08,ENE,76,0.0,-999.0,77,-99.99,,,0.01,weatherlink.com 1.10,2013-01-15 23:15:00,
2013-01-15 18:30:00,73.5,66.0,30.08,ESE,109,0.0,-999.0,78,-99.99,,,0.01,weatherlink.com 1.10,2013-01-15 23:30:00,
2013-01-15 18:45:00,72.9,66.0,30.08,ESE,113,0.0,-999.0,78,-99.99,,,0.01,weatherlink.com 1.10,2013-01-15 23:45:00,
2013-01-15 19:00:00,72.6,65.0,30.08,ESE,103,0.0,-999.0,78,-99.99,,,0.01,weatherlink.com 1.10,2013-01-16 00:00:00,
2013-01-15 19:15:00,72.3,65.0,30.08,East,101,0.0,-999.0,79,-99.99,,,0.01,weatherlink.com 1.10,2013-01-16 00:15:00,
2013-01-15 19:30:00,72.1,65.0,30.08,ENE,75,0.0,-999.0,79,-99.99,,,0.01,weatherlink.com 1.10,2013-01-16 00:30:00,
2013-01-15 19:45:00,72.2,65.0,30.07,ESE,121,0.0,-999.0,79,-99.99,,,0.01,weatherlink.com 1.10,2013-01-16 00:45:00,
2013-01-15 20:00:00,72.1,65.0,30.07,ESE,109,0.0,-999.0,79,-99.99,,,0.01,weatherlink.com 1.10,2013-01-16 01:00:00,
2013-01-15 20:15:00,71.7,65.0,30.07,SE,136,0.0,-999.0,79,-99.99,,,0.01,weatherlink.com 1.10,2013-01-16 01:15:00,
2013-01-15 20:30:00,71.4,65.0,30.07,East,92,0.0,-999.0,80,-99.99,,,0.01,weatherlink.com 1.10,2013-01-16 01:30:00,
2013-01-15 20:45:00,71.0,65.0,30.06,SE,142,0.0,-999.0,81,-99.99,,,0.01,weatherlink.com 1.10,2013-01-16 01:45:00,
2013-01-15 21:00:00,70.8,65.0,30.06,ESE,118,0.0,-999.0,81,-99.99,,,0.01,weatherlink.com 1.10,2013-01-16 02:00:00,
2013-01-15 21:15:00,70.6,65.0,30.06,SE,130,0.0,-999.0,82,-99.99,,,0.01,weatherlink.com 1.10,2013-01-16 02:15:00,
2013-01-15 21:30:00,70.3,65.0,30.05,ESE,123,0.0,-999.0,83,-99.99,,,0.01,weatherlink.com 1.10,2013-01-16 02:30:00,
2013-01-15 21:45:00,70.1,65.0,30.05,SE,126,0.0,-999.0,83,-99.99,,,0.01,weatherlink.com 1.10,2013-01-16 02:45:00,
2013-01-15 22:01:00,69.6,65.0,30.05,East,101,0.0,-999.0,84,-99.99,,,0.01,weatherlink.com 1.10,2013-01-16 03:01:00,
2013-01-15 22:16:00,68.9,64.0,30.04,East,101,0.0,-999.0,85,-99.99,,,0.01,weatherlink.com 1.10,2013-01-16 03:16:00,
2013-01-15 22:31:00,68.0,64.0,30.04,East,101,0.0,-999.0,87,-99.99,,,0.01,weatherlink.com 1.10,2013-01-16 03:31:00,
2013-01-15 22:46:00,67.3,64.0,30.04,East,101,0.0,-999.0,89,-99.99,,,0.01,weatherlink.com 1.10,2013-01-16 03:46:00,
2013-01-15 23:01:00,66.9,64.0,30.04,East,101,0.0,-999.0,90,-99.99,,,0.01,weatherlink.com 1.10,2013-01-16 04:01:00,
2013-01-15 23:16:00,66.1,64.0,30.04,East,101,0.0,-999.0,91,-99.99,,,0.01,weatherlink.com 1.10,2013-01-16 04:16:00,
2013-01-15 23:31:00,65.8,64.0,30.04,East,101,0.0,-999.0,92,-99.99,,,0.01,weatherlink.com 1.10,2013-01-16 04:31:00,
2013-01-15 23:46:00,65.8,64.0,30.04,East,101,0.0,-999.0,93,-99.99,,,0.01,weatherlink.com 1.10,2013-01-16 04:46:00,